Terminal Aerodrome Forecast
Issued by NWS

Home | Current Version | Previous Version | Text Only | Print | Product List | Glossary On
Versions: 1 2 3 4 5 6 7 8 9 10 11 12 13 14 15 16 17 18
533
FTUS45 KVEF 241729
TAFDAG
TAF
KDAG 241729Z 2418/2518 29010KT P6SM SCT250
     FM250100 25017G25KT P6SM SCT100 OVC250
     FM251600 26020G28KT P6SM SCT080 BKN100=

USA.gov is the U.S. government's official web portal to all federal, state and local government web resources and services.